Terminal Aerodrome Forecast
Issued by NWS Tulsa, OK

Home | Current Version | Previous Version | Text Only | Print | Product List | Glossary On
Versions: 1 2 3 4 5 6 7 8 9 10 11 12 13 14 15 16 17 18 19 20
000
FTUS44 KTSA 251210 AAA
TAFTUL
TAF AMD
KTUL 251210Z 2512/2612 00000KT 4SM BR SKC
      TEMPO 2512/2514 1SM BR BKN002
     FM251600 16008KT P6SM SKC
     FM260100 VRB04KT P6SM SCT100=

USA.gov is the U.S. government's official web portal to all federal, state and local government web resources and services.